Time;durP1;ratioP1;P1;durP2;ratioP2;P2;SDS_P1;SDS_P2;PMS_P1;PMS_P2;Temp;Humidity;BMP_temperature;BMP_pressure;BME280_temperature;BME280_humidity;BME280_pressure;Samples;Min_cycle;Max_cycle;Signal;HPM_P1;HPM_P2
2023/08/23 00:00:28;;;;;;;4.03;2.05;;;;;;;;;;5045454;28;20022;-78
2023/08/23 00:02:53;;;;;;;5.43;1.92;;;;;;;;;;5045488;28;20029;-78
2023/08/23 00:05:19;;;;;;;5.97;2.72;;;;;;;;;;5043345;28;20025;-78
2023/08/23 00:07:44;;;;;;;4.10;2.35;;;;;;;;;;5045829;28;20028;-78
2023/08/23 00:10:10;;;;;;;5.18;2.50;;;;;;;;;;5033193;28;20044;-78
2023/08/23 00:12:35;;;;;;;6.63;2.63;;;;;;;;;;5037614;28;20044;-78
2023/08/23 00:15:00;;;;;;;4.07;2.17;;;;;;;;;;5044429;28;20082;-78
2023/08/23 00:17:25;;;;;;;3.90;2.38;;;;;;;;;;5041071;28;20107;-77
2023/08/23 00:19:51;;;;;;;4.90;2.67;;;;;;;;;;5044863;28;20028;-78
2023/08/23 00:22:16;;;;;;;4.07;2.17;;;;;;;;;;5042351;28;20040;-77
2023/08/23 00:24:41;;;;;;;5.95;2.75;;;;;;;;;;5044365;28;20503;-77
2023/08/23 00:27:06;;;;;;;3.85;2.40;;;;;;;;;;5043096;28;20028;-77
2023/08/23 00:29:33;;;;;;;5.50;2.20;;;;;;;;;;5041197;28;20500;-78
2023/08/23 00:31:59;;;;;;;6.93;2.55;;;;;;;;;;5040628;28;20049;-77
2023/08/23 00:34:24;;;;;;;4.20;2.28;;;;;;;;;;5024420;28;20036;-78
2023/08/23 00:36:49;;;;;;;6.07;2.20;;;;;;;;;;5040444;28;20052;-78
2023/08/23 00:39:15;;;;;;;5.07;2.70;;;;;;;;;;5023251;28;20045;-78
2023/08/23 00:41:40;;;;;;;5.47;2.67;;;;;;;;;;5044306;28;20101;-77
2023/08/23 00:44:06;;;;;;;4.53;2.20;;;;;;;;;;5042146;28;20041;-78
2023/08/23 00:46:31;;;;;;;7.05;2.20;;;;;;;;;;5041323;28;20037;-78
2023/08/23 00:48:56;;;;;;;4.75;2.30;;;;;;;;;;5043097;28;20135;-78
2023/08/23 00:51:22;;;;;;;6.05;2.40;;;;;;;;;;5041420;28;20053;-78
2023/08/23 00:53:47;;;;;;;5.47;2.65;;;;;;;;;;5042177;28;20082;-78
2023/08/23 00:56:12;;;;;;;4.03;2.28;;;;;;;;;;5010171;28;20028;-78
2023/08/23 00:58:38;;;;;;;5.22;2.50;;;;;;;;;;5042144;28;20044;-77
2023/08/23 01:01:03;;;;;;;6.05;2.25;;;;;;;;;;5025799;28;20029;-78
2023/08/23 01:03:29;;;;;;;4.65;2.30;;;;;;;;;;5042271;28;20021;-78
2023/08/23 01:05:54;;;;;;;6.63;2.60;;;;;;;;;;5042556;28;20480;-78
2023/08/23 01:08:40;;;;;;;4.60;2.70;;;;;;;;;;5042357;28;20033;-78
2023/08/23 01:11:09;;;;;;;6.35;3.25;;;;;;;;;;5039626;28;20271;-77
2023/08/23 01:13:40;;;;;;;4.82;2.70;;;;;;;;;;5043724;28;20040;-77
2023/08/23 01:16:06;;;;;;;5.25;2.95;;;;;;;;;;5033473;28;20420;-78
2023/08/23 01:18:31;;;;;;;4.95;2.33;;;;;;;;;;5045010;28;20125;-78
2023/08/23 01:20:57;;;;;;;5.50;2.47;;;;;;;;;;5042597;28;20543;-78
2023/08/23 01:23:23;;;;;;;6.65;2.65;;;;;;;;;;5042599;28;20449;-77
2023/08/23 01:25:48;;;;;;;4.53;2.70;;;;;;;;;;5041305;28;20021;-77
2023/08/23 01:28:14;;;;;;;4.70;2.40;;;;;;;;;;5042900;28;20060;-77
2023/08/23 01:30:39;;;;;;;4.90;2.40;;;;;;;;;;5042013;28;20283;-77
2023/08/23 01:33:13;;;;;;;6.43;2.40;;;;;;;;;;5040947;28;20037;-78
2023/08/23 01:35:41;;;;;;;4.32;2.22;;;;;;;;;;5044409;28;20383;-78
2023/08/23 01:38:07;;;;;;;4.70;2.33;;;;;;;;;;5040594;28;20037;-78
2023/08/23 01:40:32;;;;;;;4.88;2.33;;;;;;;;;;5032281;28;20025;-77
2023/08/23 01:42:58;;;;;;;4.97;2.78;;;;;;;;;;5043062;28;20035;-78
2023/08/23 01:45:23;;;;;;;4.65;2.40;;;;;;;;;;5026976;28;20377;-78
2023/08/23 01:47:49;;;;;;;4.15;2.45;;;;;;;;;;5044040;28;20029;-78
2023/08/23 01:50:15;;;;;;;5.00;2.78;;;;;;;;;;5036129;28;20095;-77
2023/08/23 01:52:40;;;;;;;5.28;2.80;;;;;;;;;;5043668;28;20472;-78
2023/08/23 01:55:07;;;;;;;6.40;2.60;;;;;;;;;;5040951;28;20029;-78
2023/08/23 01:57:32;;;;;;;11.32;3.03;;;;;;;;;;5041308;28;20388;-77
2023/08/23 01:59:57;;;;;;;5.57;2.83;;;;;;;;;;5008427;28;20480;-77
2023/08/23 02:02:23;;;;;;;5.63;3.28;;;;;;;;;;5041273;28;20032;-77
2023/08/23 02:04:48;;;;;;;6.07;2.67;;;;;;;;;;5042910;28;20024;-78
2023/08/23 02:07:14;;;;;;;5.50;2.97;;;;;;;;;;5030197;28;20018;-77
2023/08/23 02:09:40;;;;;;;6.20;2.88;;;;;;;;;;5038123;28;20091;-78
2023/08/23 02:12:05;;;;;;;5.15;2.40;;;;;;;;;;5043551;28;20051;-78
2023/08/23 02:14:30;;;;;;;6.35;3.22;;;;;;;;;;5037043;28;20075;-77
2023/08/23 02:16:55;;;;;;;5.07;2.83;;;;;;;;;;5040799;28;20025;-77
2023/08/23 02:19:21;;;;;;;6.10;3.00;;;;;;;;;;5015172;28;20029;-78
2023/08/23 02:21:46;;;;;;;6.97;2.60;;;;;;;;;;5040091;28;20033;-78
2023/08/23 02:24:12;;;;;;;9.38;3.17;;;;;;;;;;5023511;28;20044;-78
2023/08/23 02:26:37;;;;;;;5.57;3.33;;;;;;;;;;5041699;28;20476;-78
2023/08/23 02:29:03;;;;;;;5.55;3.40;;;;;;;;;;5041023;28;20503;-78
2023/08/23 02:31:28;;;;;;;4.82;2.53;;;;;;;;;;5040038;28;20063;-78
2023/08/23 02:33:54;;;;;;;4.57;2.42;;;;;;;;;;5039160;28;20492;-78
2023/08/23 02:36:19;;;;;;;5.03;2.72;;;;;;;;;;5023394;28;20056;-78
2023/08/23 02:38:44;;;;;;;4.93;2.97;;;;;;;;;;5041259;28;20060;-78
2023/08/23 02:41:09;;;;;;;5.30;3.40;;;;;;;;;;5023027;28;20471;-78
2023/08/23 02:43:36;;;;;;;5.72;3.63;;;;;;;;;;5040882;28;20028;-78
2023/08/23 02:46:01;;;;;;;5.00;3.38;;;;;;;;;;5040679;28;20033;-77
2023/08/23 02:48:26;;;;;;;4.88;3.15;;;;;;;;;;5023102;28;20037;-78
2023/08/23 02:50:53;;;;;;;5.25;2.97;;;;;;;;;;5041557;28;20492;-77
2023/08/23 02:53:18;;;;;;;6.50;4.57;;;;;;;;;;5040205;28;20163;-78
2023/08/23 02:55:44;;;;;;;6.80;5.18;;;;;;;;;;5042021;28;20031;-78
2023/08/23 02:58:09;;;;;;;10.55;4.63;;;;;;;;;;5021587;28;20032;-77
2023/08/23 03:00:34;;;;;;;5.22;3.38;;;;;;;;;;5021754;28;20116;-78
2023/08/23 03:02:59;;;;;;;6.45;3.17;;;;;;;;;;5024456;28;20025;-78
2023/08/23 03:05:25;;;;;;;5.88;2.88;;;;;;;;;;5039887;28;20129;-78
2023/08/23 03:07:50;;;;;;;6.47;2.92;;;;;;;;;;5040783;28;20504;-78
2023/08/23 03:10:15;;;;;;;6.00;3.03;;;;;;;;;;5036890;28;20041;-77
2023/08/23 03:12:40;;;;;;;4.97;2.70;;;;;;;;;;5042249;28;20033;-77
2023/08/23 03:15:06;;;;;;;7.15;3.92;;;;;;;;;;5039520;28;20104;-77
2023/08/23 03:17:31;;;;;;;7.38;3.30;;;;;;;;;;5040224;28;20419;-77
2023/08/23 03:19:57;;;;;;;6.25;3.50;;;;;;;;;;5036403;28;20013;-77
2023/08/23 03:22:23;;;;;;;4.32;3.15;;;;;;;;;;5028256;28;20418;-77
2023/08/23 03:24:49;;;;;;;6.90;3.20;;;;;;;;;;5025711;28;20455;-77
2023/08/23 03:27:15;;;;;;;6.88;3.15;;;;;;;;;;5040128;28;20053;-77
2023/08/23 03:29:45;;;;;;;5.68;3.53;;;;;;;;;;5033440;28;20064;-78
2023/08/23 03:32:11;;;;;;;7.28;3.20;;;;;;;;;;5034725;28;20495;-77
2023/08/23 03:34:37;;;;;;;5.90;3.40;;;;;;;;;;5027810;28;20029;-77
2023/08/23 03:37:02;;;;;;;6.60;3.42;;;;;;;;;;5035497;28;20028;-77
2023/08/23 03:39:27;;;;;;;11.70;3.83;;;;;;;;;;5025077;28;20033;-77
2023/08/23 03:41:52;;;;;;;8.07;3.42;;;;;;;;;;5009487;28;20029;-77
2023/08/23 03:44:18;;;;;;;7.13;3.83;;;;;;;;;;5027398;28;20163;-77
2023/08/23 03:46:43;;;;;;;6.60;3.50;;;;;;;;;;5024045;28;20108;-77
2023/08/23 03:49:08;;;;;;;6.65;3.40;;;;;;;;;;5024931;28;20021;-77
2023/08/23 03:51:34;;;;;;;6.88;3.42;;;;;;;;;;5026148;28;20025;-77
2023/08/23 03:53:59;;;;;;;5.32;2.65;;;;;;;;;;5027093;28;20044;-77
2023/08/23 03:56:24;;;;;;;5.03;3.03;;;;;;;;;;5042566;28;20036;-77
2023/08/23 03:58:50;;;;;;;6.57;3.45;;;;;;;;;;5040330;28;20397;-78
2023/08/23 04:01:16;;;;;;;5.75;2.60;;;;;;;;;;5045642;28;20569;-77
2023/08/23 04:03:42;;;;;;;6.35;3.17;;;;;;;;;;5026307;28;20507;-77
2023/08/23 04:06:07;;;;;;;5.85;3.10;;;;;;;;;;5043402;28;20030;-77
2023/08/23 04:08:32;;;;;;;5.65;3.30;;;;;;;;;;5013511;28;20040;-78
2023/08/23 04:10:58;;;;;;;7.43;3.55;;;;;;;;;;5022326;28;20029;-77
2023/08/23 04:13:24;;;;;;;5.82;3.40;;;;;;;;;;5043688;28;20558;-77
2023/08/23 04:15:49;;;;;;;7.63;3.80;;;;;;;;;;5042196;28;20407;-77
2023/08/23 04:18:15;;;;;;;8.27;4.05;;;;;;;;;;5032461;28;20033;-78
2023/08/23 04:20:40;;;;;;;6.32;3.15;;;;;;;;;;5018078;28;20029;-77
2023/08/23 04:23:06;;;;;;;4.85;3.35;;;;;;;;;;5022715;28;20029;-77
2023/08/23 04:25:31;;;;;;;9.25;4.55;;;;;;;;;;5037229;28;20078;-77
2023/08/23 04:27:57;;;;;;;5.47;3.10;;;;;;;;;;5038523;28;20025;-77
2023/08/23 04:30:22;;;;;;;6.82;3.63;;;;;;;;;;5033630;28;20439;-77
2023/08/23 04:32:49;;;;;;;5.97;3.53;;;;;;;;;;5042152;28;20025;-78
2023/08/23 04:35:15;;;;;;;5.97;3.50;;;;;;;;;;5037924;28;20060;-77
2023/08/23 04:37:40;;;;;;;7.18;3.33;;;;;;;;;;5013640;28;20122;-78
2023/08/23 04:40:11;;;;;;;7.38;3.58;;;;;;;;;;5019267;28;20041;-79
2023/08/23 04:42:38;;;;;;;5.88;3.03;;;;;;;;;;5037839;28;20026;-78
2023/08/23 04:45:04;;;;;;;4.97;2.70;;;;;;;;;;5019660;28;20109;-78
2023/08/23 04:47:32;;;;;;;4.60;3.42;;;;;;;;;;5041962;28;20121;-78
2023/08/23 04:49:58;;;;;;;7.10;3.10;;;;;;;;;;5042061;28;20021;-78
2023/08/23 04:52:23;;;;;;;6.63;3.28;;;;;;;;;;5024328;28;20774;-78
2023/08/23 04:54:49;;;;;;;8.18;3.67;;;;;;;;;;5023974;28;20033;-78
2023/08/23 04:57:15;;;;;;;5.47;3.10;;;;;;;;;;5037904;28;20025;-78
2023/08/23 04:59:40;;;;;;;8.07;3.40;;;;;;;;;;5027615;28;20553;-78
2023/08/23 05:02:06;;;;;;;6.95;2.88;;;;;;;;;;5034920;28;20017;-77
2023/08/23 05:04:31;;;;;;;6.90;3.22;;;;;;;;;;5041042;28;20067;-78
2023/08/23 05:06:57;;;;;;;9.15;3.38;;;;;;;;;;5024608;28;20022;-78
2023/08/23 05:09:22;;;;;;;8.55;3.45;;;;;;;;;;5021599;28;20037;-78
2023/08/23 05:11:48;;;;;;;4.70;3.08;;;;;;;;;;5039245;28;20017;-78
2023/08/23 05:14:13;;;;;;;5.63;3.28;;;;;;;;;;5039972;28;20029;-78
2023/08/23 05:16:39;;;;;;;7.65;4.43;;;;;;;;;;5023511;28;20488;-78
2023/08/23 05:19:04;;;;;;;7.13;4.47;;;;;;;;;;5040710;28;20393;-78
2023/08/23 05:21:29;;;;;;;7.50;4.50;;;;;;;;;;5018233;28;20899;-78
2023/08/23 05:23:54;;;;;;;7.47;5.35;;;;;;;;;;5041428;28;20043;-78
2023/08/23 05:26:20;;;;;;;7.28;4.75;;;;;;;;;;5040587;28;20029;-78
2023/08/23 05:28:46;;;;;;;10.02;6.18;;;;;;;;;;5025465;28;20029;-78
2023/08/23 05:31:11;;;;;;;7.15;4.93;;;;;;;;;;5037249;28;20514;-78
2023/08/23 05:33:38;;;;;;;7.15;3.90;;;;;;;;;;5023535;28;20065;-78
2023/08/23 05:36:04;;;;;;;8.07;3.78;;;;;;;;;;5020310;28;20033;-78
2023/08/23 05:38:29;;;;;;;7.47;4.03;;;;;;;;;;5042135;28;20041;-78
2023/08/23 05:40:55;;;;;;;5.22;4.10;;;;;;;;;;5006828;28;20032;-78
2023/08/23 05:43:21;;;;;;;8.50;4.60;;;;;;;;;;5038158;28;20512;-78
2023/08/23 05:45:50;;;;;;;8.18;5.05;;;;;;;;;;5039359;28;20018;-78
2023/08/23 05:48:15;;;;;;;6.72;4.05;;;;;;;;;;5036592;28;20099;-78
2023/08/23 05:50:41;;;;;;;7.90;4.97;;;;;;;;;;5041016;28;20101;-78
2023/08/23 05:53:09;;;;;;;6.22;4.05;;;;;;;;;;5041364;28;20024;-78
2023/08/23 05:55:35;;;;;;;7.30;4.18;;;;;;;;;;5040879;28;20033;-78
2023/08/23 05:58:01;;;;;;;7.72;4.85;;;;;;;;;;5042632;28;20063;-78
2023/08/23 06:00:26;;;;;;;7.57;4.65;;;;;;;;;;5040834;28;20017;-78
2023/08/23 06:02:51;;;;;;;6.25;4.43;;;;;;;;;;5041238;28;20507;-78
2023/08/23 06:05:16;;;;;;;9.75;4.47;;;;;;;;;;5043962;28;20044;-77
2023/08/23 06:07:42;;;;;;;9.23;4.15;;;;;;;;;;5041339;28;20033;-77
2023/08/23 06:10:07;;;;;;;7.22;3.95;;;;;;;;;;5022709;28;20040;-77
2023/08/23 06:12:33;;;;;;;8.38;5.50;;;;;;;;;;5023776;28;20057;-77
2023/08/23 06:14:58;;;;;;;7.40;4.70;;;;;;;;;;5042059;28;20032;-78
2023/08/23 06:17:25;;;;;;;8.30;4.55;;;;;;;;;;5039126;28;20403;-77
2023/08/23 06:19:51;;;;;;;7.40;4.68;;;;;;;;;;5023312;28;20079;-78
2023/08/23 06:22:17;;;;;;;11.27;5.47;;;;;;;;;;5041902;28;20480;-77
2023/08/23 06:24:42;;;;;;;9.00;5.07;;;;;;;;;;5031626;28;20034;-77
2023/08/23 06:27:07;;;;;;;7.93;4.15;;;;;;;;;;5029510;28;20018;-78
2023/08/23 06:29:33;;;;;;;6.18;4.40;;;;;;;;;;5038847;28;20496;-78
2023/08/23 06:31:58;;;;;;;8.00;4.47;;;;;;;;;;5041990;28;20518;-78
2023/08/23 06:34:23;;;;;;;6.93;4.60;;;;;;;;;;5040858;28;20279;-78
2023/08/23 06:36:48;;;;;;;6.50;3.58;;;;;;;;;;5040599;28;20044;-78
2023/08/23 06:39:14;;;;;;;10.18;5.13;;;;;;;;;;5020956;28;20037;-78
2023/08/23 06:41:39;;;;;;;8.60;4.15;;;;;;;;;;5042278;28;20036;-78
2023/08/23 06:44:04;;;;;;;6.80;2.90;;;;;;;;;;5043231;28;20043;-78
2023/08/23 06:46:29;;;;;;;8.48;3.40;;;;;;;;;;5040480;28;20026;-78
2023/08/23 06:48:55;;;;;;;6.72;3.33;;;;;;;;;;5041237;28;20032;-78
2023/08/23 06:51:20;;;;;;;6.78;3.47;;;;;;;;;;5040071;28;20123;-78
2023/08/23 06:53:46;;;;;;;6.95;2.63;;;;;;;;;;5042371;28;20037;-78
2023/08/23 06:56:11;;;;;;;4.60;2.58;;;;;;;;;;5040473;28;20026;-78
2023/08/23 06:58:37;;;;;;;10.18;7.22;;;;;;;;;;5042274;28;20032;-78
2023/08/23 07:01:02;;;;;;;9.60;5.22;;;;;;;;;;5039069;28;20028;-78
2023/08/23 07:03:27;;;;;;;7.90;4.47;;;;;;;;;;5039446;28;20539;-78
2023/08/23 07:05:53;;;;;;;7.23;5.20;;;;;;;;;;5042518;28;20024;-77
2023/08/23 07:08:27;;;;;;;5.85;3.50;;;;;;;;;;5040142;28;20268;-77
2023/08/23 07:10:52;;;;;;;7.78;3.42;;;;;;;;;;5029532;28;20120;-78
2023/08/23 07:13:17;;;;;;;8.82;3.35;;;;;;;;;;5038240;28;20120;-78
2023/08/23 07:15:43;;;;;;;12.00;9.07;;;;;;;;;;5021994;28;20056;-78
2023/08/23 07:18:08;;;;;;;9.57;5.00;;;;;;;;;;5040866;28;20291;-78
2023/08/23 07:20:33;;;;;;;6.75;3.88;;;;;;;;;;5039285;28;20183;-78
2023/08/23 07:22:59;;;;;;;8.68;3.55;;;;;;;;;;5037461;28;20029;-78
2023/08/23 07:25:24;;;;;;;16.65;3.35;;;;;;;;;;5024880;28;20082;-77
2023/08/23 07:27:49;;;;;;;7.43;3.40;;;;;;;;;;5039946;28;20119;-78
2023/08/23 07:30:14;;;;;;;6.70;3.30;;;;;;;;;;5040527;28;20405;-78
2023/08/23 07:32:39;;;;;;;9.73;3.20;;;;;;;;;;5036988;28;20405;-77
2023/08/23 07:35:05;;;;;;;5.22;2.85;;;;;;;;;;5026792;28;20051;-77
2023/08/23 07:37:30;;;;;;;8.98;3.53;;;;;;;;;;5041430;28;20488;-77
2023/08/23 07:39:56;;;;;;;7.80;3.83;;;;;;;;;;5036216;28;20049;-78
2023/08/23 07:42:24;;;;;;;9.68;3.75;;;;;;;;;;5039933;28;20522;-77
2023/08/23 07:44:49;;;;;;;8.75;5.18;;;;;;;;;;5039400;28;20112;-77
2023/08/23 07:47:14;;;;;;;8.32;3.88;;;;;;;;;;5040537;28;20113;-78
2023/08/23 07:49:39;;;;;;;9.77;5.07;;;;;;;;;;5040159;28;20025;-78
2023/08/23 07:52:05;;;;;;;8.48;3.50;;;;;;;;;;5051730;23;20347;-77
2023/08/23 07:54:30;;;;;;;5.28;2.75;;;;;;;;;;5026655;28;20034;-78
2023/08/23 07:56:55;;;;;;;9.20;2.73;;;;;;;;;;5021806;28;20033;-78
2023/08/23 07:59:20;;;;;;;6.30;3.60;;;;;;;;;;5019138;28;20725;-77
2023/08/23 08:01:45;;;;;;;7.45;3.65;;;;;;;;;;5021121;28;20279;-77
2023/08/23 08:04:11;;;;;;;7.20;3.27;;;;;;;;;;5022839;28;20052;-78
2023/08/23 08:06:37;;;;;;;7.53;3.07;;;;;;;;;;5021739;28;20750;-78
2023/08/23 08:09:02;;;;;;;9.95;3.50;;;;;;;;;;5020815;28;20280;-78
2023/08/23 08:11:27;;;;;;;8.30;4.90;;;;;;;;;;5018340;28;20458;-78
2023/08/23 08:13:52;;;;;;;5.70;3.15;;;;;;;;;;5022630;28;20025;-78
2023/08/23 08:16:18;;;;;;;7.37;3.40;;;;;;;;;;5023833;28;20034;-77
2023/08/23 08:18:43;;;;;;;8.88;4.30;;;;;;;;;;5032847;28;20299;-78
2023/08/23 08:21:09;;;;;;;7.18;3.67;;;;;;;;;;5020708;28;20044;-75
2023/08/23 08:23:34;;;;;;;3.75;2.35;;;;;;;;;;5031994;28;20033;-77
2023/08/23 08:25:59;;;;;;;5.70;2.80;;;;;;;;;;5029988;28;20531;-77
2023/08/23 08:28:25;;;;;;;7.28;3.00;;;;;;;;;;5022238;28;20022;-78
2023/08/23 08:30:50;;;;;;;7.97;3.78;;;;;;;;;;5024253;28;20387;-77
2023/08/23 08:33:16;;;;;;;5.72;3.05;;;;;;;;;;5025282;28;20061;-76
2023/08/23 08:35:41;;;;;;;5.72;2.83;;;;;;;;;;5024969;28;20023;-76
2023/08/23 08:38:06;;;;;;;6.27;2.33;;;;;;;;;;5021882;28;20413;-77
2023/08/23 08:40:32;;;;;;;6.30;2.33;;;;;;;;;;5027122;28;20794;-77
2023/08/23 08:42:58;;;;;;;4.60;2.30;;;;;;;;;;5025480;28;20018;-78
2023/08/23 08:45:23;;;;;;;8.65;3.78;;;;;;;;;;5025823;28;20083;-77
2023/08/23 08:47:49;;;;;;;9.18;3.50;;;;;;;;;;5025761;28;20468;-77
2023/08/23 08:50:14;;;;;;;7.43;3.28;;;;;;;;;;5029499;28;20029;-77
2023/08/23 08:52:41;;;;;;;7.18;2.47;;;;;;;;;;5026758;28;20065;-77
2023/08/23 08:55:06;;;;;;;5.40;2.58;;;;;;;;;;5029072;28;20041;-77
2023/08/23 08:57:32;;;;;;;4.88;2.60;;;;;;;;;;5025337;28;20030;-78
2023/08/23 08:59:58;;;;;;;4.85;2.90;;;;;;;;;;5026914;28;20034;-78
2023/08/23 09:02:25;;;;;;;7.20;2.30;;;;;;;;;;5014037;28;20032;-77
2023/08/23 09:04:51;;;;;;;4.60;2.08;;;;;;;;;;5030188;28;20030;-77
2023/08/23 09:07:16;;;;;;;6.95;2.50;;;;;;;;;;5025348;28;20033;-77
2023/08/23 09:09:42;;;;;;;5.43;2.45;;;;;;;;;;5023165;28;20488;-78
2023/08/23 09:12:08;;;;;;;6.18;2.05;;;;;;;;;;5022576;28;20428;-78
2023/08/23 09:14:33;;;;;;;8.35;2.80;;;;;;;;;;5028363;28;20037;-77
2023/08/23 09:16:58;;;;;;;6.30;2.93;;;;;;;;;;5024612;28;20041;-78
2023/08/23 09:19:24;;;;;;;4.27;2.07;;;;;;;;;;5022292;28;20288;-78
2023/08/23 09:21:49;;;;;;;4.85;2.63;;;;;;;;;;5023596;28;20272;-78
2023/08/23 09:24:15;;;;;;;4.30;2.30;;;;;;;;;;5022927;28;20021;-78
2023/08/23 09:26:40;;;;;;;5.00;2.55;;;;;;;;;;5027579;28;20413;-78
2023/08/23 09:29:05;;;;;;;5.15;2.58;;;;;;;;;;5021078;28;20045;-77
2023/08/23 09:31:31;;;;;;;8.70;5.87;;;;;;;;;;5025745;28;20068;-77
2023/08/23 09:33:56;;;;;;;10.73;6.97;;;;;;;;;;5027006;28;20300;-78
2023/08/23 09:36:28;;;;;;;8.32;3.65;;;;;;;;;;5026816;28;20038;-78
2023/08/23 09:39:00;;;;;;;4.97;3.42;;;;;;;;;;5021451;28;20030;-78
2023/08/23 09:41:25;;;;;;;;;;;;;;;;;;5021137;28;20405;-78
2023/08/23 09:43:52;;;;;;;6.60;2.73;;;;;;;;;;5024519;28;19999;-78
2023/08/23 09:46:19;;;;;;;6.05;2.28;;;;;;;;;;5024109;28;20272;-78
2023/08/23 09:48:45;;;;;;;6.20;2.10;;;;;;;;;;5022521;28;20033;-77
2023/08/23 09:51:10;;;;;;;5.88;1.88;;;;;;;;;;5027512;28;20495;-78
2023/08/23 09:53:37;;;;;;;5.00;2.08;;;;;;;;;;5024717;28;20029;-78
2023/08/23 09:56:02;;;;;;;5.25;2.80;;;;;;;;;;5023878;28;20037;-77
2023/08/23 09:58:28;;;;;;;8.10;2.50;;;;;;;;;;5029903;28;20041;-78
2023/08/23 10:00:54;;;;;;;7.82;3.05;;;;;;;;;;5023492;28;20403;-78
2023/08/23 10:03:20;;;;;;;5.10;2.22;;;;;;;;;;5028139;28;20029;-78
2023/08/23 10:05:46;;;;;;;4.55;1.80;;;;;;;;;;5024913;28;20499;-78
2023/08/23 10:08:12;;;;;;;4.82;2.00;;;;;;;;;;5026294;28;20049;-77
2023/08/23 10:10:38;;;;;;;6.63;2.60;;;;;;;;;;5019761;28;20041;-78
2023/08/23 10:13:05;;;;;;;5.20;2.20;;;;;;;;;;5022338;28;20038;-78
2023/08/23 10:15:32;;;;;;;4.93;1.92;;;;;;;;;;5023887;28;20040;-78
2023/08/23 10:18:02;;;;;;;4.25;2.10;;;;;;;;;;5027896;28;20492;-78
2023/08/23 10:20:27;;;;;;;6.57;2.95;;;;;;;;;;5025406;28;20480;-78
2023/08/23 10:22:54;;;;;;;8.35;6.32;;;;;;;;;;5030030;28;20112;-78
2023/08/23 10:25:20;;;;;;;7.97;3.90;;;;;;;;;;5029535;28;20030;-78
2023/08/23 10:27:46;;;;;;;9.20;2.63;;;;;;;;;;5012651;28;20029;-78
2023/08/23 10:30:24;;;;;;;8.85;5.40;;;;;;;;;;5026589;28;20033;-77
2023/08/23 10:32:50;;;;;;;6.35;2.25;;;;;;;;;;5024029;28;20075;-77
2023/08/23 10:35:18;;;;;;;3.90;2.42;;;;;;;;;;5029742;28;20033;-78
2023/08/23 10:37:44;;;;;;;6.40;2.05;;;;;;;;;;5022746;28;20038;-78
2023/08/23 10:40:10;;;;;;;5.68;3.17;;;;;;;;;;5021617;28;20033;-78
2023/08/23 10:42:35;;;;;;;4.13;2.00;;;;;;;;;;5020276;28;20121;-77
2023/08/23 10:45:05;;;;;;;5.40;1.97;;;;;;;;;;5024690;28;20030;-78
2023/08/23 10:47:35;;;;;;;3.58;2.00;;;;;;;;;;5028102;28;20104;-77
2023/08/23 10:50:01;;;;;;;7.28;2.10;;;;;;;;;;5022902;28;20036;-78
2023/08/23 10:52:26;;;;;;;5.35;2.30;;;;;;;;;;5019854;28;20041;-77
2023/08/23 10:54:51;;;;;;;4.87;2.23;;;;;;;;;;5025675;28;20025;-77
2023/08/23 10:57:17;;;;;;;7.78;2.17;;;;;;;;;;5024470;28;20280;-78
2023/08/23 10:59:43;;;;;;;4.28;2.25;;;;;;;;;;5019500;28;20030;-78
2023/08/23 11:02:08;;;;;;;4.25;1.80;;;;;;;;;;5021901;28;20040;-75
2023/08/23 11:04:34;;;;;;;6.90;2.30;;;;;;;;;;5021918;28;20026;-75
2023/08/23 11:06:59;;;;;;;4.53;2.05;;;;;;;;;;5025931;28;20056;-75
2023/08/23 11:09:24;;;;;;;4.93;2.03;;;;;;;;;;5022407;28;20065;-75
2023/08/23 11:11:50;;;;;;;5.63;2.10;;;;;;;;;;5023594;28;20307;-75
2023/08/23 11:14:15;;;;;;;5.60;2.28;;;;;;;;;;5021979;28;20029;-75
2023/08/23 11:16:41;;;;;;;5.50;2.30;;;;;;;;;;5023401;28;20021;-75
2023/08/23 11:19:07;;;;;;;4.60;1.90;;;;;;;;;;5024557;28;20056;-76
2023/08/23 11:21:32;;;;;;;4.07;1.83;;;;;;;;;;5020995;28;20026;-76
2023/08/23 11:24:01;;;;;;;5.68;1.80;;;;;;;;;;5021470;28;20033;-75
2023/08/23 11:26:26;;;;;;;3.72;1.45;;;;;;;;;;5024765;28;20104;-76
2023/08/23 11:28:51;;;;;;;5.07;2.00;;;;;;;;;;5020716;28;20452;-75
2023/08/23 11:31:17;;;;;;;3.47;2.00;;;;;;;;;;5022490;28;20032;-76
2023/08/23 11:33:42;;;;;;;4.10;1.70;;;;;;;;;;5025061;28;20756;-75
2023/08/23 11:36:09;;;;;;;5.97;1.87;;;;;;;;;;5020382;28;20045;-75
2023/08/23 11:38:35;;;;;;;4.43;1.88;;;;;;;;;;5022909;28;20974;-75
2023/08/23 11:41:00;;;;;;;4.40;1.95;;;;;;;;;;5018405;28;20022;-75
2023/08/23 11:43:26;;;;;;;3.78;2.20;;;;;;;;;;5021822;28;20037;-75
2023/08/23 11:45:52;;;;;;;5.32;1.95;;;;;;;;;;5022287;28;20061;-75
2023/08/23 11:48:17;;;;;;;6.22;2.10;;;;;;;;;;5022927;28;20034;-75
2023/08/23 11:50:43;;;;;;;3.35;1.77;;;;;;;;;;5021278;28;20049;-75
2023/08/23 11:53:09;;;;;;;5.70;2.63;;;;;;;;;;5026608;28;20497;-76
2023/08/23 11:55:34;;;;;;;3.17;1.90;;;;;;;;;;5026324;28;20033;-75
2023/08/23 11:57:59;;;;;;;3.63;1.50;;;;;;;;;;5023103;28;20285;-76
2023/08/23 12:00:25;;;;;;;4.35;1.60;;;;;;;;;;5025602;28;20033;-75
2023/08/23 12:02:50;;;;;;;3.63;1.90;;;;;;;;;;5030287;28;20029;-75
2023/08/23 12:05:16;;;;;;;4.80;3.00;;;;;;;;;;5022674;28;20041;-75
2023/08/23 12:07:41;;;;;;;5.13;2.28;;;;;;;;;;5022519;28;20436;-76
2023/08/23 12:10:08;;;;;;;5.23;2.07;;;;;;;;;;5021908;28;20484;-75
2023/08/23 12:12:34;;;;;;;2.90;1.33;;;;;;;;;;5026103;28;20504;-75
2023/08/23 12:14:59;;;;;;;3.00;1.60;;;;;;;;;;5028523;28;20036;-76
2023/08/23 12:17:24;;;;;;;4.57;2.10;;;;;;;;;;5023150;28;20030;-75
2023/08/23 12:19:49;;;;;;;3.87;2.77;;;;;;;;;;5024991;28;20294;-75
2023/08/23 12:22:15;;;;;;;5.80;2.07;;;;;;;;;;5022749;28;20034;-75
2023/08/23 12:24:41;;;;;;;7.03;3.30;;;;;;;;;;5027392;28;20025;-75
2023/08/23 12:27:06;;;;;;;4.38;2.67;;;;;;;;;;5025121;28;20147;-75
2023/08/23 12:29:32;;;;;;;2.53;1.33;;;;;;;;;;5022665;28;20042;-76
2023/08/23 12:31:57;;;;;;;3.30;2.00;;;;;;;;;;5024854;28;20044;-75
2023/08/23 12:34:23;;;;;;;3.42;1.55;;;;;;;;;;5023135;28;20293;-76
2023/08/23 12:36:48;;;;;;;3.75;1.45;;;;;;;;;;5028633;28;20029;-75
2023/08/23 12:39:16;;;;;;;3.47;1.60;;;;;;;;;;5023174;28;20033;-75
2023/08/23 12:41:41;;;;;;;4.22;1.90;;;;;;;;;;5021883;28;20038;-75
2023/08/23 12:44:06;;;;;;;5.13;1.42;;;;;;;;;;5023597;28;20080;-75
2023/08/23 12:46:32;;;;;;;3.20;1.50;;;;;;;;;;5025092;28;20037;-74
2023/08/23 12:48:57;;;;;;;7.57;1.90;;;;;;;;;;5028683;28;20275;-75
2023/08/23 12:51:23;;;;;;;3.10;1.97;;;;;;;;;;5026955;28;20033;-75
2023/08/23 12:53:48;;;;;;;3.50;2.03;;;;;;;;;;5029205;28;20033;-75
2023/08/23 12:56:14;;;;;;;3.53;1.70;;;;;;;;;;5023128;28;20640;-74
2023/08/23 12:58:39;;;;;;;3.00;1.33;;;;;;;;;;5024209;28;20045;-76
2023/08/23 13:01:05;;;;;;;5.53;1.60;;;;;;;;;;5024770;28;20044;-75
2023/08/23 13:03:30;;;;;;;6.37;1.70;;;;;;;;;;5023047;28;20084;-76
2023/08/23 13:05:55;;;;;;;2.83;1.40;;;;;;;;;;5025247;28;20786;-75
2023/08/23 13:08:20;;;;;;;2.80;1.20;;;;;;;;;;5025435;28;20272;-75
2023/08/23 13:10:46;;;;;;;4.43;1.50;;;;;;;;;;5022399;28;20410;-75
2023/08/23 13:13:11;;;;;;;2.77;1.30;;;;;;;;;;5024952;28;20125;-75
2023/08/23 13:15:36;;;;;;;2.90;1.40;;;;;;;;;;5023937;28;20280;-75
2023/08/23 13:18:01;;;;;;;2.70;1.40;;;;;;;;;;5022529;28;20033;-74
2023/08/23 13:20:26;;;;;;;4.03;1.80;;;;;;;;;;5024273;28;20049;-76
2023/08/23 13:22:52;;;;;;;5.93;2.43;;;;;;;;;;5029123;28;20400;-74
2023/08/23 13:25:17;;;;;;;4.88;1.70;;;;;;;;;;5026218;28;20060;-74
2023/08/23 13:27:42;;;;;;;3.60;1.73;;;;;;;;;;5028045;28;20083;-75
2023/08/23 13:30:08;;;;;;;3.80;1.30;;;;;;;;;;5024039;28;20398;-75
2023/08/23 13:32:34;;;;;;;2.33;1.30;;;;;;;;;;5028430;28;20455;-75
2023/08/23 13:34:59;;;;;;;4.35;1.27;;;;;;;;;;5023686;28;20030;-75
2023/08/23 13:37:24;;;;;;;3.67;1.53;;;;;;;;;;5024900;28;20033;-74
2023/08/23 13:39:49;;;;;;;3.43;1.50;;;;;;;;;;5021389;28;20036;-75
2023/08/23 13:42:15;;;;;;;3.37;1.10;;;;;;;;;;5022536;28;20383;-74
2023/08/23 13:44:40;;;;;;;2.43;1.03;;;;;;;;;;5030001;28;20026;-75
2023/08/23 13:47:05;;;;;;;5.13;1.38;;;;;;;;;;5028427;28;20018;-75
2023/08/23 13:49:30;;;;;;;2.42;1.20;;;;;;;;;;5021634;28;20508;-74
2023/08/23 13:51:57;;;;;;;4.30;1.50;;;;;;;;;;5024389;28;20033;-75
2023/08/23 13:54:22;;;;;;;2.90;1.08;;;;;;;;;;5024442;28;20073;-74
2023/08/23 13:56:48;;;;;;;3.72;1.42;;;;;;;;;;5020371;28;20579;-75
2023/08/23 13:59:13;;;;;;;6.67;1.60;;;;;;;;;;5082273;23;20052;-73
2023/08/23 14:01:38;;;;;;;2.67;0.90;;;;;;;;;;5043890;28;20033;-73
2023/08/23 14:04:03;;;;;;;2.80;1.17;;;;;;;;;;5045682;28;20383;-74
2023/08/23 14:06:29;;;;;;;4.88;1.50;;;;;;;;;;5045097;28;20057;-73
2023/08/23 14:08:54;;;;;;;2.43;1.30;;;;;;;;;;5043473;28;20430;-74
2023/08/23 14:11:19;;;;;;;3.27;1.40;;;;;;;;;;5050815;28;20281;-74
2023/08/23 14:13:44;;;;;;;3.60;1.30;;;;;;;;;;5042854;28;20356;-73
2023/08/23 14:16:09;;;;;;;3.33;1.10;;;;;;;;;;5043386;28;20041;-73
2023/08/23 14:18:35;;;;;;;3.33;1.27;;;;;;;;;;5040730;28;20160;-74
2023/08/23 14:21:00;;;;;;;3.45;1.10;;;;;;;;;;5043128;28;20038;-73
2023/08/23 14:23:26;;;;;;;6.15;1.42;;;;;;;;;;5043687;28;20025;-73
2023/08/23 14:25:51;;;;;;;3.87;1.17;;;;;;;;;;5049997;28;20029;-73
2023/08/23 14:28:16;;;;;;;3.38;1.33;;;;;;;;;;5050903;28;20275;-73
2023/08/23 14:30:44;;;;;;;3.97;1.23;;;;;;;;;;5045822;28;20043;-74
2023/08/23 14:33:09;;;;;;;2.72;1.00;;;;;;;;;;5040671;28;20280;-73